createdAt,value
2018-04-10T00:01:26.517Z,20.25
2018-04-10T00:03:53.322Z,21.45
2018-04-10T00:06:20.167Z,20.33
2018-04-10T00:08:46.964Z,20.77
2018-04-10T00:11:13.589Z,19.52
2018-04-10T00:23:25.325Z,19.05
2018-04-10T00:25:52.612Z,18.67
2018-04-10T00:28:23.280Z,19.90
2018-04-10T00:30:50.586Z,20.80
2018-04-10T00:33:17.601Z,22.00
2018-04-10T00:35:48.458Z,18.87
2018-04-10T00:38:16.695Z,20.35
2018-04-10T00:40:43.989Z,20.42
2018-04-10T00:43:15.720Z,21.42
2018-04-10T00:45:43.039Z,21.60
2018-04-10T00:48:09.682Z,19.45
2018-04-10T00:50:36.456Z,19.95
2018-04-10T00:53:09.878Z,21.48
2018-04-10T00:55:36.535Z,23.25
2018-04-10T00:58:07.338Z,22.35
2018-04-10T01:00:34.091Z,21.83
2018-04-10T01:03:00.713Z,21.98
2018-04-10T01:05:27.673Z,22.08
2018-04-10T01:07:54.531Z,23.38
2018-04-10T01:10:21.235Z,20.20
2018-04-10T01:12:48.501Z,22.40
2018-04-10T01:15:15.996Z,21.83
2018-04-10T01:17:43.338Z,22.00
2018-04-10T01:20:09.997Z,23.83
2018-04-10T01:22:37.040Z,21.83
2018-04-10T01:25:08.051Z,20.83
2018-04-10T01:27:34.719Z,23.05
2018-04-10T01:30:02.015Z,22.42
2018-04-10T01:32:28.819Z,21.30
2018-04-10T01:34:55.453Z,23.10
2018-04-10T01:37:22.091Z,22.80
2018-04-10T01:39:48.976Z,23.20
2018-04-10T01:42:15.801Z,21.58
2018-04-10T01:44:42.454Z,21.70
2018-04-10T01:47:09.115Z,22.40
2018-04-10T01:49:36.212Z,21.52
2018-04-10T01:52:02.829Z,22.77
2018-04-10T01:54:29.922Z,22.80
2018-04-10T01:56:56.579Z,23.10
2018-04-10T01:59:23.951Z,22.55
2018-04-10T02:01:52.048Z,23.23
2018-04-10T02:04:20.906Z,24.25
2018-04-10T02:06:47.570Z,23.50
2018-04-10T02:09:14.209Z,22.50
2018-04-10T02:11:43.403Z,23.08
2018-04-10T02:14:10.989Z,22.95
2018-04-10T02:16:38.525Z,23.12
2018-04-10T02:19:05.182Z,24.20
2018-04-10T02:21:31.902Z,23.30
2018-04-10T02:23:59.042Z,23.42
2018-04-10T02:26:25.879Z,24.17
2018-04-10T02:28:52.573Z,21.70
2018-04-10T02:31:19.258Z,25.00
2018-04-10T02:33:45.934Z,23.48
2018-04-10T02:36:12.664Z,22.70
2018-04-10T02:38:39.776Z,22.65
2018-04-10T02:41:06.447Z,23.67
2018-04-10T02:43:33.164Z,24.12
2018-04-10T02:45:59.941Z,23.05
2018-04-10T02:48:27.430Z,23.27
2018-04-10T02:50:54.134Z,23.42
2018-04-10T02:53:20.886Z,22.58
2018-04-10T02:55:47.587Z,24.05
2018-04-10T02:58:14.338Z,25.55
2018-04-10T03:00:44.887Z,22.33
2018-04-10T03:03:16.041Z,23.70
2018-04-10T03:05:47.549Z,23.83
2018-04-10T03:08:14.331Z,22.30
2018-04-10T03:10:46.666Z,24.35
2018-04-10T03:13:13.463Z,23.90
2018-04-10T03:15:41.655Z,22.95
2018-04-10T03:18:08.444Z,22.45
2018-04-10T03:20:35.127Z,23.40
2018-04-10T03:23:01.840Z,21.45
2018-04-10T03:25:28.521Z,23.05
2018-04-10T03:27:55.278Z,21.60
2018-04-10T03:30:21.960Z,22.27
2018-04-10T03:32:48.815Z,21.50
2018-04-10T03:35:15.848Z,21.42
2018-04-10T03:37:43.911Z,22.92
2018-04-10T03:40:10.791Z,22.73
2018-04-10T03:42:37.545Z,21.05
2018-04-10T03:45:05.677Z,20.88
2018-04-10T03:47:32.499Z,21.73
2018-04-10T03:49:59.202Z,20.92
2018-04-10T03:52:26.156Z,19.98
2018-04-10T03:54:52.826Z,21.62
2018-04-10T03:57:20.608Z,19.95
2018-04-10T03:59:47.274Z,20.50
2018-04-10T04:02:14.308Z,21.98
2018-04-10T04:14:25.955Z,20.95
2018-04-10T04:16:59.126Z,19.17
2018-04-10T04:19:32.929Z,20.08
2018-04-10T04:22:06.406Z,19.55
2018-04-10T04:24:33.942Z,21.65
2018-04-10T04:27:00.603Z,19.25
2018-04-10T04:29:27.341Z,20.35
2018-04-10T04:31:57.777Z,20.77
2018-04-10T04:34:24.583Z,21.00
2018-04-10T04:36:55.866Z,19.90
2018-04-10T04:39:26.898Z,20.25
2018-04-10T04:41:58.666Z,19.55
2018-04-10T04:44:25.374Z,19.70
2018-04-10T04:46:52.031Z,20.02
2018-04-10T04:49:18.739Z,21.35
2018-04-10T04:51:46.443Z,21.00
2018-04-10T04:54:13.117Z,21.08
2018-04-10T04:56:45.549Z,21.70
2018-04-10T04:59:12.189Z,22.33
2018-04-10T05:01:42.473Z,20.80
2018-04-10T05:04:09.109Z,20.67
2018-04-10T05:06:36.040Z,20.95
2018-04-10T05:09:03.869Z,21.95
2018-04-10T05:11:30.538Z,21.52
2018-04-10T05:14:01.329Z,21.58
2018-04-10T05:16:27.991Z,22.50
2018-04-10T05:18:58.036Z,21.52
2018-04-10T05:21:24.666Z,21.00
2018-04-10T05:23:51.390Z,21.05
2018-04-10T05:26:18.080Z,20.62
2018-04-10T05:28:45.319Z,20.12
2018-04-10T05:31:12.009Z,19.55
2018-04-10T05:33:43.142Z,19.70
2018-04-10T05:36:10.609Z,21.50
2018-04-10T05:38:41.566Z,19.98
2018-04-10T05:41:08.986Z,20.98
2018-04-10T05:43:36.423Z,21.75
2018-04-10T05:46:04.033Z,20.52
2018-04-10T05:48:30.905Z,21.37
2018-04-10T05:50:58.142Z,20.90
2018-04-10T05:53:24.981Z,20.95
2018-04-10T05:55:51.662Z,20.48
2018-04-10T05:58:19.057Z,19.42
2018-04-10T06:00:46.442Z,19.40
2018-04-10T06:03:13.383Z,19.48
2018-04-10T06:05:44.101Z,19.58
2018-04-10T06:08:10.786Z,19.33
2018-04-10T06:10:38.833Z,19.60
2018-04-10T06:13:05.889Z,18.33
2018-04-10T06:15:32.599Z,20.08
2018-04-10T06:18:03.366Z,19.75
2018-04-10T06:20:30.023Z,23.70
2018-04-10T06:22:57.575Z,19.60
2018-04-10T06:25:25.194Z,21.62
2018-04-10T06:27:52.021Z,21.00
2018-04-10T06:30:23.707Z,19.65
2018-04-10T06:32:50.425Z,19.77
2018-04-10T06:35:22.197Z,20.50
2018-04-10T06:37:49.606Z,20.80
2018-04-10T06:40:16.235Z,22.25
2018-04-10T06:42:42.862Z,22.50
2018-04-10T06:45:09.485Z,24.50
2018-04-10T06:47:36.123Z,24.70
2018-04-10T06:50:02.745Z,25.37
2018-04-10T06:52:29.376Z,24.20
2018-04-10T06:54:56.010Z,24.03
2018-04-10T06:57:22.649Z,26.00
2018-04-10T06:59:49.265Z,24.07
2018-04-10T07:02:15.895Z,23.67
2018-04-10T07:04:42.510Z,24.87
2018-04-10T07:07:09.137Z,24.50
2018-04-10T07:09:35.742Z,25.90
2018-04-10T07:12:02.377Z,26.43
2018-04-10T07:14:29.002Z,25.10
2018-04-10T07:16:55.622Z,25.50
2018-04-10T07:19:22.255Z,24.73
2018-04-10T07:21:48.875Z,24.50
2018-04-10T07:24:15.522Z,27.27
2018-04-10T07:26:42.145Z,21.23
2018-04-10T07:29:08.770Z,19.30
2018-04-10T07:31:35.408Z,22.13
2018-04-10T07:34:02.040Z,21.20
2018-04-10T07:36:29.334Z,17.93
2018-04-10T07:38:55.994Z,19.33
2018-04-10T07:41:22.594Z,19.33
2018-04-10T07:43:49.224Z,18.83
2018-04-10T07:46:15.832Z,18.53
2018-04-10T07:48:42.457Z,17.77
2018-04-10T07:51:09.070Z,17.30
2018-04-10T07:53:35.693Z,19.40
2018-04-10T07:56:02.363Z,18.30
2018-04-10T07:58:28.985Z,17.67
2018-04-10T08:00:55.614Z,17.03
2018-04-10T08:03:22.255Z,17.27
2018-04-10T08:05:48.861Z,19.40
2018-04-10T08:08:15.491Z,20.37
2018-04-10T08:10:42.127Z,17.43
2018-04-10T08:13:08.769Z,18.07
2018-04-10T08:15:35.395Z,20.17
2018-04-10T08:18:02.098Z,19.07
2018-04-10T08:20:28.790Z,21.00
2018-04-10T08:22:55.398Z,18.00
2018-04-10T08:25:22.047Z,18.80
2018-04-10T08:27:48.675Z,18.40
2018-04-10T08:30:15.312Z,16.63
2018-04-10T08:32:41.918Z,18.63
2018-04-10T08:35:08.592Z,18.20
2018-04-10T08:37:35.201Z,18.00
2018-04-10T08:40:01.981Z,18.77
2018-04-10T08:42:28.595Z,18.63
2018-04-10T08:44:55.275Z,17.80
2018-04-10T08:47:21.898Z,18.70
2018-04-10T08:49:48.519Z,18.10
2018-04-10T08:52:15.157Z,18.87
2018-04-10T08:54:41.786Z,18.87
2018-04-10T08:57:08.428Z,18.60
2018-04-10T08:59:35.050Z,17.87
2018-04-10T09:02:01.681Z,19.53
2018-04-10T09:04:28.295Z,19.23
2018-04-10T09:06:54.929Z,18.70
2018-04-10T09:09:21.599Z,20.83
2018-04-10T09:11:48.194Z,19.00
2018-04-10T09:14:14.821Z,18.87
2018-04-10T09:16:41.470Z,16.87
2018-04-10T09:19:08.085Z,18.83
2018-04-10T09:21:34.698Z,18.30
2018-04-10T09:24:01.368Z,19.03
2018-04-10T09:26:28.047Z,19.80
2018-04-10T09:28:54.695Z,18.07
2018-04-10T09:31:21.318Z,19.17
2018-04-10T09:33:47.949Z,19.73
2018-04-10T09:36:14.791Z,18.60
2018-04-10T09:38:41.438Z,19.67
2018-04-10T09:41:08.105Z,19.67
2018-04-10T09:43:35.102Z,16.57
2018-04-10T09:46:01.809Z,15.37
2018-04-10T09:48:28.639Z,18.70
2018-04-10T09:50:55.406Z,17.90
2018-04-10T09:53:22.187Z,18.10
2018-04-10T09:55:49.068Z,17.83
2018-04-10T09:58:15.862Z,17.13
2018-04-10T10:00:42.663Z,17.30
2018-04-10T10:03:09.500Z,17.90
2018-04-10T10:05:36.305Z,16.73
2018-04-10T10:08:03.331Z,17.50
2018-04-10T10:10:30.014Z,18.00
2018-04-10T10:12:57.623Z,18.70
2018-04-10T10:15:24.344Z,17.07
2018-04-10T10:17:51.105Z,18.70
2018-04-10T10:20:17.870Z,17.60
2018-04-10T10:22:44.694Z,19.47
2018-04-10T10:25:11.534Z,17.73
2018-04-10T10:27:38.214Z,17.47
2018-04-10T10:30:04.984Z,18.57
2018-04-10T10:32:31.884Z,18.07
2018-04-10T10:34:58.810Z,18.20
2018-04-10T10:37:25.700Z,18.20
2018-04-10T10:39:52.485Z,19.20
2018-04-10T10:42:19.283Z,21.53
2018-04-10T10:44:46.197Z,18.90
2018-04-10T10:47:12.959Z,19.33
2018-04-10T10:49:39.714Z,21.00
2018-04-10T10:52:06.460Z,19.70
2018-04-10T10:54:35.098Z,19.40
2018-04-10T10:57:01.773Z,21.43
2018-04-10T10:59:28.584Z,21.23
2018-04-10T11:01:55.655Z,20.57
2018-04-10T11:04:22.402Z,20.27
2018-04-10T11:06:49.435Z,18.97
2018-04-10T11:09:16.881Z,19.63
2018-04-10T11:11:45.944Z,18.03
2018-04-10T11:14:13.068Z,20.60
2018-04-10T11:16:39.913Z,19.57
2018-04-10T11:19:06.789Z,21.20
2018-04-10T11:21:33.807Z,19.80
2018-04-10T11:24:00.686Z,20.80
2018-04-10T11:26:27.730Z,21.93
2018-04-10T11:28:54.628Z,22.23
2018-04-10T11:31:21.345Z,20.83
2018-04-10T11:33:48.201Z,21.50
2018-04-10T11:36:15.134Z,19.40
2018-04-10T11:38:44.807Z,18.37
2018-04-10T11:41:12.069Z,21.47
2018-04-10T11:43:38.930Z,18.50
2018-04-10T11:46:05.733Z,20.27
2018-04-10T11:48:32.601Z,18.90
2018-04-10T11:50:59.511Z,19.90
2018-04-10T11:53:26.446Z,19.33
2018-04-10T11:55:53.460Z,20.83
2018-04-10T11:58:20.828Z,23.60
2018-04-10T12:00:47.598Z,22.77
2018-04-10T12:03:14.345Z,21.70
2018-04-10T12:05:41.272Z,21.40
2018-04-10T12:08:08.473Z,21.90
2018-04-10T12:10:36.771Z,23.37
2018-04-10T12:13:03.636Z,20.30
2018-04-10T12:15:30.534Z,22.30
2018-04-10T12:17:57.321Z,21.80
2018-04-10T12:20:24.406Z,21.60
2018-04-10T12:22:51.239Z,21.73
2018-04-10T12:25:18.096Z,23.47
2018-04-10T12:27:45.240Z,22.37
2018-04-10T12:30:12.184Z,21.83
2018-04-10T12:32:38.996Z,21.50
2018-04-10T12:35:06.399Z,20.93
2018-04-10T12:37:33.178Z,24.20
2018-04-10T12:39:59.971Z,24.73
2018-04-10T12:42:27.597Z,24.90
2018-04-10T12:44:54.495Z,25.70
2018-04-10T12:47:21.916Z,24.10
2018-04-10T12:49:49.294Z,25.70
2018-04-10T12:52:20.851Z,25.40
2018-04-10T12:54:48.042Z,25.13
2018-04-10T12:57:14.880Z,25.50
2018-04-10T12:59:41.624Z,25.90
2018-04-10T13:02:08.447Z,25.63
2018-04-10T13:04:35.241Z,25.70
2018-04-10T13:07:02.312Z,24.80
2018-04-10T15:08:40.952Z,34.33
2018-04-10T15:11:07.615Z,33.73
2018-04-10T15:13:34.272Z,32.93
2018-04-10T15:16:01.174Z,30.50
2018-04-10T15:18:27.839Z,32.40
2018-04-10T15:20:54.468Z,30.07
2018-04-10T15:23:21.121Z,29.17
2018-04-10T15:25:47.746Z,30.77
2018-04-10T15:28:14.407Z,32.33
2018-04-10T15:30:41.077Z,29.07
2018-04-10T15:33:07.800Z,31.07
2018-04-10T15:35:34.757Z,31.80
2018-04-10T15:38:01.513Z,33.33
2018-04-10T15:40:28.289Z,35.00
2018-04-10T15:42:55.285Z,33.83
2018-04-10T15:45:22.059Z,33.37
2018-04-10T15:47:48.902Z,32.30
2018-04-10T15:50:15.678Z,31.57
2018-04-10T15:52:42.474Z,36.90
2018-04-10T15:55:09.307Z,34.27
2018-04-10T15:57:36.198Z,34.60
2018-04-10T16:00:03.029Z,30.17
2018-04-10T16:02:29.818Z,33.80
2018-04-10T16:04:56.587Z,35.70
2018-04-10T16:07:23.445Z,34.20
2018-04-10T16:09:50.906Z,31.70
2018-04-10T16:12:17.873Z,33.37
2018-04-10T16:14:44.859Z,35.30
2018-04-10T16:17:11.922Z,32.07
2018-04-10T16:19:38.774Z,30.17
2018-04-10T16:22:05.628Z,33.40
2018-04-10T16:24:32.388Z,32.07
2018-04-10T16:26:59.179Z,33.40
2018-04-10T16:29:26.033Z,35.37
2018-04-10T16:31:52.847Z,33.37
2018-04-10T16:34:19.605Z,31.47
2018-04-10T16:36:46.470Z,32.77
2018-04-10T16:39:13.278Z,30.60
2018-04-10T16:41:40.171Z,31.70
2018-04-10T16:44:06.970Z,30.50
2018-04-10T16:46:33.814Z,30.93
2018-04-10T16:49:00.876Z,30.67
2018-04-10T16:51:27.939Z,31.17
2018-04-10T16:53:54.864Z,27.57
2018-04-10T16:56:21.803Z,30.53
2018-04-10T16:58:48.664Z,28.77
2018-04-10T17:01:15.622Z,30.23
2018-04-10T17:03:42.528Z,29.50
2018-04-10T17:06:10.142Z,27.57
2018-04-10T17:08:37.122Z,27.90
2018-04-10T17:11:04.078Z,27.50
2018-04-10T17:13:30.989Z,27.80
2018-04-10T17:15:57.853Z,25.70
2018-04-10T17:18:26.802Z,25.33
2018-04-10T17:20:55.151Z,26.30
2018-04-10T17:23:22.606Z,26.20
2018-04-10T17:25:49.688Z,25.03
2018-04-10T17:28:17.369Z,26.00
2018-04-10T17:30:44.265Z,26.90
2018-04-10T17:33:11.172Z,26.00
2018-04-10T17:35:38.785Z,26.60
2018-04-10T17:38:05.687Z,26.17
2018-04-10T17:40:32.709Z,25.17
2018-04-10T17:42:59.674Z,24.10
2018-04-10T17:45:26.647Z,26.97
2018-04-10T17:47:53.532Z,26.10
2018-04-10T17:50:20.320Z,26.30
2018-04-10T17:52:47.039Z,26.80
2018-04-10T17:55:14.565Z,25.27
2018-04-10T17:57:41.439Z,26.80
2018-04-10T18:00:08.255Z,26.40
2018-04-10T18:02:35.195Z,27.80
2018-04-10T18:05:02.022Z,26.60
2018-04-10T18:07:29.816Z,26.00
2018-04-10T18:09:57.701Z,26.50
2018-04-10T18:12:24.669Z,25.53
2018-04-10T18:14:51.699Z,24.70
2018-04-10T18:17:18.849Z,26.43
2018-04-10T18:19:45.945Z,26.03
2018-04-10T18:22:12.923Z,26.97
2018-04-10T18:24:40.436Z,27.70
2018-04-10T18:27:07.361Z,27.60
2018-04-10T18:29:34.312Z,28.70
2018-04-10T18:32:01.135Z,27.63
2018-04-10T18:34:27.907Z,26.67
2018-04-10T18:36:54.892Z,25.90
2018-04-10T18:39:21.703Z,27.83
2018-04-10T18:41:49.433Z,29.37
2018-04-10T18:44:17.659Z,29.17
2018-04-10T18:46:44.608Z,27.98
2018-04-10T18:49:11.806Z,27.80
2018-04-10T18:51:38.946Z,29.15
2018-04-10T18:54:06.511Z,28.70
2018-04-10T18:56:33.589Z,29.37
2018-04-10T18:59:00.500Z,29.33
2018-04-10T19:01:28.539Z,27.95
2018-04-10T19:03:56.261Z,28.73
2018-04-10T19:06:24.244Z,27.40
2018-04-10T19:28:29.692Z,29.00
2018-04-10T19:30:56.898Z,29.23
2018-04-10T19:33:23.966Z,27.17
2018-04-10T19:35:54.330Z,28.80
2018-04-10T19:38:22.193Z,28.87
2018-04-10T19:40:50.164Z,27.80
2018-04-10T19:43:17.471Z,27.13
2018-04-10T19:45:44.380Z,27.47
2018-04-10T19:48:12.334Z,27.00
2018-04-10T19:50:39.156Z,26.10
2018-04-10T19:53:06.021Z,26.10
2018-04-10T19:55:32.864Z,27.55
2018-04-10T19:57:59.782Z,26.63
2018-04-10T20:00:31.581Z,27.70
2018-04-10T20:02:59.570Z,26.35
2018-04-10T20:05:26.471Z,25.80
2018-04-10T20:07:53.517Z,28.00
2018-04-10T20:10:20.484Z,26.70
2018-04-10T20:12:47.373Z,25.30
2018-04-10T20:15:14.461Z,28.70
2018-04-10T20:17:42.859Z,26.35
2018-04-10T20:20:09.740Z,26.05
2018-04-10T20:22:36.990Z,28.02
2018-04-10T20:25:03.787Z,26.73
2018-04-10T20:27:30.519Z,26.02
2018-04-10T20:29:57.283Z,24.55
2018-04-10T20:32:24.119Z,26.60
2018-04-10T20:34:51.506Z,25.85
2018-04-10T20:37:18.624Z,27.17
2018-04-10T20:39:45.609Z,26.83
2018-04-10T20:42:12.488Z,27.25
2018-04-10T20:44:39.542Z,25.70
2018-04-10T20:47:10.707Z,22.85
2018-04-10T20:49:45.145Z,23.70
2018-04-10T20:52:11.990Z,25.08
2018-04-10T20:54:38.862Z,24.73
2018-04-10T20:57:05.600Z,25.08
2018-04-10T20:59:32.385Z,22.98
2018-04-10T21:01:59.280Z,22.85
2018-04-10T21:04:26.084Z,23.50
2018-04-10T21:06:53.031Z,22.37
2018-04-10T21:09:20.565Z,21.77
2018-04-10T21:11:47.744Z,21.45
2018-04-10T21:14:14.679Z,21.17
2018-04-10T21:16:41.379Z,22.83
2018-04-10T21:19:08.163Z,21.75
2018-04-10T21:21:34.976Z,21.33
2018-04-10T21:24:03.016Z,23.40
2018-04-10T21:26:29.734Z,22.35
2018-04-10T21:28:57.352Z,23.67
2018-04-10T21:31:24.211Z,24.35
2018-04-10T21:33:51.716Z,24.27
2018-04-10T21:36:19.216Z,23.33
2018-04-10T21:38:46.473Z,24.05
2018-04-10T21:41:13.239Z,23.90
2018-04-10T21:43:40.313Z,23.45
2018-04-10T21:46:07.808Z,24.40
2018-04-10T21:48:36.291Z,25.10
2018-04-10T21:51:03.119Z,23.73
2018-04-10T21:53:30.916Z,23.83
2018-04-10T21:55:57.846Z,17.87
2018-04-10T21:58:24.585Z,16.58
2018-04-10T22:00:51.506Z,14.98
2018-04-10T22:03:18.290Z,14.95
2018-04-10T22:05:45.035Z,13.93
2018-04-10T22:08:11.686Z,12.85
2018-04-10T22:10:38.346Z,12.00
2018-04-10T22:13:05.710Z,12.30
2018-04-10T22:15:32.388Z,12.27
2018-04-10T22:17:59.855Z,11.50
2018-04-10T22:20:26.494Z,11.23
2018-04-10T22:22:53.487Z,11.38
2018-04-10T22:25:20.166Z,10.52
2018-04-10T22:27:46.986Z,11.38
2018-04-10T22:30:14.181Z,12.75
2018-04-10T22:32:41.151Z,10.63
2018-04-10T22:35:07.846Z,10.93
2018-04-10T22:37:34.502Z,12.27
2018-04-10T22:40:01.320Z,12.23
2018-04-10T22:42:28.995Z,12.55
2018-04-10T22:44:56.093Z,11.38
2018-04-10T22:47:23.365Z,11.93
2018-04-10T22:49:50.145Z,11.98
2018-04-10T22:52:19.224Z,12.35
2018-04-10T22:54:45.951Z,10.95
2018-04-10T22:57:12.615Z,10.98
2018-04-10T22:59:40.378Z,11.70
2018-04-10T23:02:07.202Z,10.50
2018-04-10T23:04:34.036Z,11.98
2018-04-10T23:07:08.623Z,11.60
2018-04-10T23:09:35.886Z,11.32
2018-04-10T23:12:02.527Z,11.45
2018-04-10T23:14:29.470Z,11.45
2018-04-10T23:16:56.168Z,11.57
2018-04-10T23:19:27.037Z,12.18
2018-04-10T23:21:54.471Z,12.05
2018-04-10T23:24:21.156Z,12.18
2018-04-10T23:26:48.959Z,11.45
2018-04-10T23:29:15.623Z,12.82
2018-04-10T23:31:42.303Z,11.73
2018-04-10T23:34:13.163Z,12.88
2018-04-10T23:36:41.393Z,11.23
2018-04-10T23:39:08.084Z,14.00
2018-04-10T23:41:34.775Z,13.95
2018-04-10T23:44:01.517Z,13.50
2018-04-10T23:46:28.231Z,14.15
2018-04-10T23:48:54.935Z,14.32
2018-04-10T23:51:21.623Z,14.95
2018-04-10T23:53:48.306Z,13.05
2018-04-10T23:56:14.978Z,12.65
2018-04-10T23:58:41.636Z,13.77
